createdAt,value
2022-12-23T00:01:11.839Z,10.90
2022-12-23T00:03:39.505Z,10.90
2022-12-23T00:06:12.992Z,10.80
2022-12-23T00:08:39.924Z,10.80
2022-12-23T00:11:06.955Z,10.80
2022-12-23T00:13:52.491Z,10.80
2022-12-23T00:16:19.523Z,10.80
2022-12-23T00:18:46.324Z,10.80
2022-12-23T00:21:13.993Z,10.80
2022-12-23T00:23:41.679Z,10.80
2022-12-23T00:26:12.535Z,10.90
2022-12-23T00:28:39.407Z,10.80
2022-12-23T00:31:06.571Z,10.70
2022-12-23T00:33:37.182Z,10.70
2022-12-23T00:36:13.402Z,10.70
2022-12-23T00:38:58.855Z,10.70
2022-12-23T00:41:44.472Z,10.60
2022-12-23T00:44:11.299Z,10.60
2022-12-23T00:46:38.048Z,10.60
2022-12-23T00:49:23.495Z,10.60
2022-12-23T00:51:50.307Z,10.60
2022-12-23T00:54:17.231Z,10.60
2022-12-23T00:56:44.056Z,10.60
2022-12-23T00:59:10.892Z,10.60
2022-12-23T01:01:56.877Z,10.60
2022-12-23T01:04:56.283Z,10.60
2022-12-23T01:07:23.313Z,10.50
2022-12-23T01:09:50.118Z,10.50
2022-12-23T01:12:16.966Z,10.50
2022-12-23T01:14:43.780Z,10.40
2022-12-23T01:17:10.599Z,10.40
2022-12-23T01:19:37.473Z,10.40
2022-12-23T01:22:04.306Z,10.40
2022-12-23T01:24:31.251Z,10.40
2022-12-23T01:26:58.174Z,10.30
2022-12-23T01:29:25.123Z,10.30
2022-12-23T01:31:52.059Z,10.30
2022-12-23T01:34:18.924Z,10.30
2022-12-23T01:36:45.799Z,10.30
2022-12-23T01:39:12.652Z,10.30
2022-12-23T01:41:58.072Z,10.30
2022-12-23T01:44:43.659Z,10.30
2022-12-23T01:47:11.837Z,10.30
2022-12-23T01:49:38.622Z,10.30
2022-12-23T01:52:05.447Z,10.30
2022-12-23T01:54:32.228Z,10.30
2022-12-23T01:56:59.047Z,10.20
2022-12-23T01:59:44.605Z,10.20
2022-12-23T02:02:30.286Z,10.20
2022-12-23T02:04:57.151Z,10.20
2022-12-23T02:07:42.682Z,10.20
2022-12-23T02:10:09.655Z,10.20
2022-12-23T02:12:36.399Z,10.20
2022-12-23T02:15:43.332Z,10.20
2022-12-23T02:18:16.306Z,10.20
2022-12-23T02:20:48.962Z,10.20
2022-12-23T02:23:27.862Z,10.20
2022-12-23T02:26:00.573Z,10.20
2022-12-23T02:28:30.483Z,10.20
2022-12-23T02:31:09.678Z,10.20
2022-12-23T02:33:36.616Z,10.20
2022-12-23T02:36:03.470Z,10.20
2022-12-23T02:38:32.128Z,10.20
2022-12-23T02:41:05.076Z,10.20
2022-12-23T02:43:31.894Z,10.20
2022-12-23T02:46:00.708Z,10.20
2022-12-23T02:48:29.534Z,10.10
2022-12-23T02:50:56.746Z,10.10
2022-12-23T02:53:31.292Z,10.10
2022-12-23T02:55:58.078Z,10.00
2022-12-23T02:58:26.423Z,10.00
2022-12-23T03:00:53.269Z,10.00
2022-12-23T03:03:21.290Z,9.90
2022-12-23T03:05:48.577Z,9.90
2022-12-23T03:08:26.084Z,9.80
2022-12-23T03:11:03.243Z,9.90
2022-12-23T03:13:30.067Z,9.90
2022-12-23T03:16:13.762Z,9.90
2022-12-23T03:18:50.398Z,9.90
2022-12-23T03:21:22.723Z,9.90
2022-12-23T03:23:55.929Z,9.90
2022-12-23T03:26:28.031Z,9.90
2022-12-23T03:29:06.294Z,9.80
2022-12-23T03:31:33.180Z,9.90
2022-12-23T03:34:10.391Z,9.80
2022-12-23T03:36:38.594Z,9.80
2022-12-23T03:39:05.895Z,9.80
2022-12-23T03:41:36.063Z,9.80
2022-12-23T03:44:06.999Z,9.80
2022-12-23T03:46:52.843Z,9.80
2022-12-23T03:49:21.787Z,9.80
2022-12-23T03:51:52.080Z,9.80
2022-12-23T03:54:24.003Z,9.80
2022-12-23T03:56:52.663Z,9.80
2022-12-23T03:59:20.128Z,9.80
2022-12-23T04:01:50.068Z,9.90
2022-12-23T04:04:23.150Z,9.90
2022-12-23T04:06:57.370Z,9.80
2022-12-23T04:09:24.646Z,9.70
2022-12-23T04:11:51.424Z,9.70
2022-12-23T04:14:18.648Z,9.70
2022-12-23T04:16:45.844Z,9.70
2022-12-23T04:19:12.660Z,9.70
2022-12-23T04:21:39.438Z,9.70
2022-12-23T04:24:06.267Z,9.70
2022-12-23T04:26:33.005Z,9.70
2022-12-23T04:28:59.793Z,9.70
2022-12-23T04:31:26.618Z,9.70
2022-12-23T04:33:53.411Z,9.70
2022-12-23T04:36:20.157Z,9.70
2022-12-23T04:38:46.949Z,9.70
2022-12-23T04:41:13.704Z,9.70
2022-12-23T04:43:40.522Z,9.70
2022-12-23T04:46:07.310Z,9.70
2022-12-23T04:48:34.124Z,9.70
2022-12-23T04:51:04.027Z,9.70
2022-12-23T04:53:30.903Z,9.70
2022-12-23T04:55:57.677Z,9.70
2022-12-23T04:58:25.279Z,9.70
2022-12-23T05:01:04.677Z,9.60
2022-12-23T05:03:31.719Z,9.60
2022-12-23T05:05:58.558Z,9.60
2022-12-23T05:08:25.383Z,9.60
2022-12-23T05:10:52.167Z,9.70
2022-12-23T05:13:18.988Z,9.70
2022-12-23T05:15:49.295Z,9.60
2022-12-23T05:18:16.203Z,9.60
2022-12-23T05:20:43.145Z,9.60
2022-12-23T05:23:09.979Z,9.70
2022-12-23T05:25:36.961Z,9.60
2022-12-23T05:28:04.008Z,9.60
2022-12-23T05:30:30.802Z,9.60
2022-12-23T05:32:57.784Z,9.70
2022-12-23T05:35:24.866Z,9.70
2022-12-23T05:37:51.862Z,9.70
2022-12-23T05:40:23.446Z,9.70
2022-12-23T05:42:54.381Z,9.70
2022-12-23T05:45:21.263Z,9.70
2022-12-23T05:47:48.044Z,9.70
2022-12-23T05:50:14.866Z,9.70
2022-12-23T05:52:41.644Z,9.60
2022-12-23T05:55:08.861Z,9.60
2022-12-23T05:57:35.679Z,9.60
2022-12-23T06:00:03.560Z,9.60
2022-12-23T06:02:39.300Z,9.60
2022-12-23T06:05:06.414Z,9.60
2022-12-23T06:07:33.256Z,9.60
2022-12-23T06:10:00.098Z,9.60
2022-12-23T06:12:26.954Z,9.60
2022-12-23T06:14:54.102Z,9.60
2022-12-23T06:17:20.894Z,9.60
2022-12-23T06:19:47.670Z,9.60
2022-12-23T06:22:14.627Z,9.60
2022-12-23T06:24:41.471Z,9.60
2022-12-23T06:27:08.244Z,9.60
2022-12-23T06:29:35.058Z,9.60
2022-12-23T06:32:01.911Z,9.60
2022-12-23T06:34:28.723Z,9.50
2022-12-23T06:36:55.509Z,9.50
2022-12-23T06:39:22.317Z,9.50
2022-12-23T06:41:49.175Z,9.50
2022-12-23T06:44:15.949Z,9.50
2022-12-23T06:46:42.789Z,9.40
2022-12-23T06:49:13.438Z,9.40
2022-12-23T06:51:40.744Z,9.40
2022-12-23T06:54:07.500Z,9.40
2022-12-23T06:56:34.466Z,9.40
2022-12-23T06:59:01.222Z,9.40
2022-12-23T07:01:28.217Z,9.30
2022-12-23T07:03:55.153Z,9.30
2022-12-23T07:06:21.967Z,9.30
2022-12-23T07:08:48.782Z,9.20
2022-12-23T07:11:15.619Z,9.20
2022-12-23T07:13:43.232Z,9.20
2022-12-23T07:16:10.448Z,9.20
2022-12-23T07:18:37.382Z,9.20
2022-12-23T07:21:04.541Z,9.20
2022-12-23T07:23:31.371Z,9.10
2022-12-23T07:25:58.178Z,9.10
2022-12-23T07:28:24.953Z,9.10
2022-12-23T07:30:51.743Z,9.20
2022-12-23T07:33:18.519Z,9.20
2022-12-23T07:35:45.340Z,9.20
2022-12-23T07:38:12.134Z,9.20
2022-12-23T07:40:38.953Z,9.20
2022-12-23T07:43:05.773Z,9.20
2022-12-23T07:45:32.671Z,9.20
2022-12-23T07:48:01.431Z,9.20
2022-12-23T07:50:28.371Z,9.20
2022-12-23T07:52:55.388Z,9.20
2022-12-23T07:55:22.306Z,9.20
2022-12-23T07:57:52.142Z,9.20
2022-12-23T08:00:19.255Z,9.20
2022-12-23T08:02:46.313Z,9.20
2022-12-23T08:05:13.387Z,9.20
2022-12-23T08:07:40.209Z,9.20
2022-12-23T08:10:07.646Z,9.20
2022-12-23T08:12:34.487Z,9.20
2022-12-23T08:15:01.383Z,9.20
2022-12-23T08:17:28.602Z,9.20
2022-12-23T08:19:55.622Z,9.20
2022-12-23T08:22:22.582Z,9.20
2022-12-23T08:24:49.523Z,9.10
2022-12-23T08:27:16.482Z,9.10
2022-12-23T08:29:43.308Z,9.10
2022-12-23T08:32:10.129Z,9.10
2022-12-23T08:34:36.934Z,9.00
2022-12-23T08:37:03.698Z,9.10
2022-12-23T08:39:30.532Z,9.10
2022-12-23T08:41:57.328Z,9.10
2022-12-23T08:44:27.388Z,9.10
2022-12-23T08:46:54.706Z,9.00
2022-12-23T08:49:21.553Z,9.10
2022-12-23T08:51:48.474Z,9.10
2022-12-23T08:54:15.953Z,9.10
2022-12-23T08:56:42.948Z,9.20
2022-12-23T08:59:19.139Z,9.20
2022-12-23T09:01:46.328Z,9.10
2022-12-23T09:04:13.204Z,9.00
2022-12-23T09:06:43.319Z,9.00
2022-12-23T09:09:10.867Z,9.00
2022-12-23T09:11:37.929Z,9.10
2022-12-23T09:14:04.866Z,9.10
2022-12-23T09:16:32.032Z,9.20
2022-12-23T09:18:59.008Z,9.20
2022-12-23T09:21:25.852Z,9.20
2022-12-23T09:23:52.671Z,9.20
2022-12-23T09:26:20.551Z,9.20
2022-12-23T09:28:47.394Z,9.20
2022-12-23T09:31:14.427Z,9.30
2022-12-23T09:33:41.345Z,9.30
2022-12-23T09:36:08.199Z,9.40
2022-12-23T09:38:35.047Z,9.40
2022-12-23T09:41:02.614Z,9.40
2022-12-23T09:43:35.587Z,9.40
2022-12-23T09:46:11.815Z,9.40
2022-12-23T09:48:39.496Z,9.40
2022-12-23T09:51:06.293Z,9.50
2022-12-23T09:53:52.067Z,9.50
2022-12-23T09:56:31.403Z,9.50
2022-12-23T09:59:07.829Z,9.50
2022-12-23T10:01:44.766Z,9.60
2022-12-23T10:04:30.939Z,9.60
2022-12-23T10:07:03.576Z,9.60
2022-12-23T10:09:34.607Z,9.60
2022-12-23T10:12:01.538Z,9.70
2022-12-23T10:14:29.524Z,9.60
2022-12-23T10:16:57.481Z,9.60
2022-12-23T10:19:41.954Z,9.60
2022-12-23T10:22:08.779Z,9.60
2022-12-23T10:24:39.412Z,9.70
2022-12-23T10:27:11.076Z,9.70
2022-12-23T10:29:37.888Z,9.80
2022-12-23T10:32:19.815Z,9.90
2022-12-23T10:34:52.497Z,9.90
2022-12-23T10:37:22.753Z,10.00
2022-12-23T10:39:55.451Z,10.10
2022-12-23T10:42:22.262Z,10.10
2022-12-23T10:45:12.243Z,10.10
2022-12-23T10:47:45.249Z,10.20
2022-12-23T10:50:22.420Z,10.30
2022-12-23T10:52:49.255Z,10.40
2022-12-23T10:55:19.097Z,10.40
2022-12-23T10:57:46.102Z,10.40
2022-12-23T11:00:17.068Z,10.40
2022-12-23T11:02:47.820Z,10.50
2022-12-23T11:05:15.911Z,10.50
2022-12-23T11:07:44.669Z,10.60
2022-12-23T11:10:16.297Z,10.60
2022-12-23T11:12:44.293Z,10.70
2022-12-23T11:15:46.831Z,10.70
2022-12-23T11:18:13.617Z,10.80
2022-12-23T11:20:41.094Z,10.80
2022-12-23T11:23:24.362Z,10.80
2022-12-23T11:25:52.251Z,10.80
2022-12-23T11:28:21.835Z,10.80
2022-12-23T11:30:56.881Z,10.90
2022-12-23T11:33:26.438Z,11.00
2022-12-23T11:36:02.731Z,11.00
2022-12-23T11:38:29.578Z,11.00
2022-12-23T11:40:56.357Z,11.00
2022-12-23T11:43:23.185Z,11.10
2022-12-23T11:45:50.034Z,11.10
2022-12-23T11:48:26.779Z,11.20
2022-12-23T11:51:00.364Z,11.30
2022-12-23T11:53:27.849Z,11.40
2022-12-23T11:56:15.003Z,11.40
2022-12-23T11:58:48.626Z,11.50
2022-12-23T12:01:18.912Z,11.60
2022-12-23T12:03:50.386Z,11.60
2022-12-23T12:06:17.305Z,11.70
2022-12-23T12:08:44.099Z,11.70
2022-12-23T12:11:13.163Z,11.70
2022-12-23T12:13:40.405Z,11.80
2022-12-23T12:16:27.085Z,11.80
2022-12-23T12:18:55.873Z,11.90
2022-12-23T12:21:24.072Z,12.10
2022-12-23T12:24:14.666Z,12.30
2022-12-23T12:26:41.434Z,12.50
2022-12-23T12:29:16.686Z,12.70
2022-12-23T12:31:50.900Z,12.80
2022-12-23T12:34:23.854Z,12.80
2022-12-23T12:36:52.661Z,12.80
2022-12-23T12:39:30.677Z,12.80
2022-12-23T12:42:05.245Z,12.70
2022-12-23T12:44:51.673Z,12.70
2022-12-23T12:47:52.035Z,12.70
2022-12-23T12:50:16.896Z,12.80
2022-12-23T12:52:43.780Z,12.90
2022-12-23T12:55:29.535Z,13.00
2022-12-23T12:57:56.401Z,13.00
2022-12-23T13:00:23.428Z,13.10
2022-12-23T13:03:05.716Z,13.20
2022-12-23T13:05:35.656Z,13.20
2022-12-23T13:08:19.130Z,13.30
2022-12-23T13:10:45.993Z,13.30
2022-12-23T13:13:24.709Z,13.30
2022-12-23T13:15:54.846Z,13.30
2022-12-23T13:18:21.658Z,13.30
2022-12-23T13:20:50.261Z,13.40
2022-12-23T13:23:42.281Z,13.30
2022-12-23T13:26:08.141Z,13.30
2022-12-23T13:28:37.954Z,13.30
2022-12-23T13:31:08.419Z,13.20
2022-12-23T13:33:47.590Z,13.20
2022-12-23T13:36:33.716Z,13.10
2022-12-23T13:39:04.162Z,13.00
2022-12-23T13:41:39.633Z,13.00
2022-12-23T13:44:08.459Z,12.90
2022-12-23T13:46:58.639Z,12.80
2022-12-23T13:49:25.468Z,12.80
2022-12-23T14:02:52.049Z,12.70
2022-12-23T14:05:31.332Z,12.70
2022-12-23T14:07:59.142Z,12.70
2022-12-23T14:10:25.985Z,12.70
2022-12-23T14:12:53.426Z,12.80
2022-12-23T14:15:35.308Z,12.80
2022-12-23T14:18:07.557Z,12.90
2022-12-23T14:20:47.407Z,12.80
2022-12-23T14:23:15.065Z,12.90
2022-12-23T14:26:00.593Z,12.80
2022-12-23T14:28:39.613Z,12.80
2022-12-23T14:31:06.515Z,12.80
2022-12-23T14:33:34.088Z,12.80
2022-12-23T14:36:14.383Z,12.80
2022-12-23T14:38:41.263Z,12.70
2022-12-23T14:41:38.273Z,12.70
2022-12-23T14:44:17.638Z,12.60
2022-12-23T14:46:44.510Z,12.60
2022-12-23T14:49:38.327Z,12.50
2022-12-23T14:52:19.921Z,12.40
2022-12-23T14:55:20.694Z,12.40
2022-12-23T14:57:33.501Z,12.40
2022-12-23T15:00:01.633Z,12.40
2022-12-23T15:02:33.540Z,12.40
2022-12-23T15:05:00.368Z,12.30
2022-12-23T15:07:36.312Z,12.30
2022-12-23T15:10:09.369Z,12.30
2022-12-23T15:12:37.412Z,12.30
2022-12-23T15:15:05.308Z,12.30
2022-12-23T15:17:33.447Z,12.30
2022-12-23T15:20:13.216Z,12.20
2022-12-23T15:22:40.997Z,12.10
2022-12-23T15:25:20.502Z,12.00
2022-12-23T15:27:47.446Z,12.00
2022-12-23T15:30:14.404Z,11.90
2022-12-23T15:32:41.657Z,11.90
2022-12-23T15:35:08.705Z,11.80
2022-12-23T15:37:35.523Z,11.70
2022-12-23T15:40:12.687Z,11.60
2022-12-23T15:42:40.455Z,11.60
2022-12-23T15:45:26.027Z,11.50
2022-12-23T15:47:52.922Z,11.50
2022-12-23T15:50:19.873Z,11.50
2022-12-23T15:52:48.657Z,11.50
2022-12-23T15:55:20.355Z,11.50
2022-12-23T15:57:50.440Z,11.40
2022-12-23T16:00:21.809Z,11.40
2022-12-23T16:03:00.396Z,11.40
2022-12-23T16:05:32.329Z,11.30
2022-12-23T16:08:16.235Z,11.20
2022-12-23T16:11:03.563Z,11.20
2022-12-23T16:13:30.725Z,11.20
2022-12-23T16:16:16.128Z,11.10
2022-12-23T16:18:47.207Z,11.20
2022-12-23T16:21:14.413Z,11.10
2022-12-23T16:23:42.188Z,11.00
2022-12-23T16:26:10.048Z,11.00
2022-12-23T16:28:40.569Z,10.90
2022-12-23T16:31:08.831Z,10.80
2022-12-23T16:33:38.927Z,10.80
2022-12-23T16:36:24.746Z,10.80
2022-12-23T16:39:00.001Z,10.80
2022-12-23T16:41:26.899Z,10.80
2022-12-23T16:43:53.720Z,10.80
2022-12-23T16:46:21.352Z,10.80
2022-12-23T16:48:49.057Z,10.80
2022-12-23T16:51:20.299Z,10.90
2022-12-23T16:53:47.775Z,10.90
2022-12-23T16:56:14.993Z,10.90
2022-12-23T16:58:42.056Z,11.00
2022-12-23T17:01:15.229Z,10.90
2022-12-23T17:03:42.176Z,11.00
2022-12-23T17:06:12.291Z,11.00
2022-12-23T17:08:39.173Z,10.90
2022-12-23T17:11:06.150Z,11.00
2022-12-23T17:13:32.948Z,10.90
2022-12-23T17:15:59.806Z,10.90
2022-12-23T17:18:26.729Z,10.90
2022-12-23T17:20:53.600Z,10.90
2022-12-23T17:23:27.050Z,10.90
2022-12-23T17:25:53.909Z,10.90
2022-12-23T17:28:20.931Z,11.00
2022-12-23T17:30:48.304Z,11.00
2022-12-23T17:33:16.536Z,11.00
2022-12-23T17:35:43.507Z,11.00
2022-12-23T17:38:13.178Z,11.00
2022-12-23T17:40:40.099Z,11.00
2022-12-23T17:43:08.393Z,11.00
2022-12-23T17:45:35.235Z,10.90
2022-12-23T17:48:02.069Z,10.90
2022-12-23T17:50:33.262Z,10.90
2022-12-23T17:53:00.058Z,10.80
2022-12-23T17:55:27.175Z,10.80
2022-12-23T17:57:53.983Z,10.80
2022-12-23T18:00:29.801Z,10.70
2022-12-23T18:03:00.635Z,10.70
2022-12-23T18:05:28.483Z,10.60
2022-12-23T18:07:55.686Z,10.50
2022-12-23T18:10:23.430Z,10.50
2022-12-23T18:12:51.942Z,10.40
2022-12-23T18:15:22.879Z,10.30
2022-12-23T18:17:49.878Z,10.40
2022-12-23T18:20:18.054Z,10.40
2022-12-23T18:22:47.763Z,10.40
2022-12-23T18:25:21.853Z,10.50
2022-12-23T18:27:48.815Z,10.50
2022-12-23T18:30:15.963Z,10.50
2022-12-23T18:32:42.860Z,10.50
2022-12-23T18:35:28.833Z,10.50
2022-12-23T18:37:55.970Z,10.50
2022-12-23T18:40:25.669Z,10.40
2022-12-23T18:42:54.813Z,10.40
2022-12-23T18:45:34.329Z,10.30
2022-12-23T18:48:01.483Z,10.30
2022-12-23T18:50:28.326Z,10.30
2022-12-23T18:52:55.179Z,10.30
2022-12-23T18:55:22.063Z,10.30
2022-12-23T18:57:49.291Z,10.20
2022-12-23T19:00:20.276Z,10.20
2022-12-23T19:02:47.659Z,10.10
2022-12-23T19:05:18.627Z,10.10
2022-12-23T19:07:45.643Z,10.10
2022-12-23T19:10:16.486Z,10.10
2022-12-23T19:12:43.297Z,10.10
2022-12-23T19:15:10.471Z,10.10
2022-12-23T19:17:37.270Z,10.00
2022-12-23T19:20:04.630Z,10.00
2022-12-23T19:22:31.483Z,10.00
2022-12-23T19:25:06.058Z,10.10
2022-12-23T19:27:33.683Z,10.10
2022-12-23T19:30:00.617Z,10.00
2022-12-23T19:32:27.662Z,9.90
2022-12-23T19:34:54.448Z,9.90
2022-12-23T19:37:21.311Z,9.90
2022-12-23T19:39:49.512Z,9.90
2022-12-23T19:42:16.490Z,9.80
2022-12-23T19:44:43.268Z,9.80
2022-12-23T19:47:10.092Z,9.80
2022-12-23T19:49:37.004Z,9.80
2022-12-23T19:52:04.047Z,9.80
2022-12-23T19:54:30.877Z,9.70
2022-12-23T19:56:58.016Z,9.70
2022-12-23T19:59:24.860Z,9.70
2022-12-23T20:01:51.792Z,9.70
2022-12-23T20:04:19.736Z,9.70
2022-12-23T20:06:46.491Z,9.70
2022-12-23T20:09:13.399Z,9.70
2022-12-23T20:11:43.988Z,9.70
2022-12-23T20:14:10.938Z,9.60
2022-12-23T20:16:38.103Z,9.60
2022-12-23T20:19:05.275Z,9.60
2022-12-23T20:21:32.223Z,9.60
2022-12-23T20:23:59.113Z,9.50
2022-12-23T20:26:27.260Z,9.50
2022-12-23T20:28:54.100Z,9.50
2022-12-23T20:31:22.215Z,9.40
2022-12-23T20:33:49.394Z,9.50
2022-12-23T20:36:16.853Z,9.40
2022-12-23T20:38:44.163Z,9.40
2022-12-23T20:41:11.717Z,9.40
2022-12-23T20:43:38.609Z,9.40
2022-12-23T20:46:06.079Z,9.40
2022-12-23T20:48:34.480Z,9.40
2022-12-23T20:51:05.082Z,9.40
2022-12-23T20:53:31.920Z,9.40
2022-12-23T20:56:09.044Z,9.30
2022-12-23T20:58:54.977Z,9.30
2022-12-23T21:01:22.343Z,9.20
2022-12-23T21:03:49.128Z,9.20
2022-12-23T21:06:15.890Z,9.20
2022-12-23T21:08:43.403Z,9.20
2022-12-23T21:11:10.239Z,9.10
2022-12-23T21:13:38.238Z,9.10
2022-12-23T21:16:05.859Z,9.10
2022-12-23T21:18:32.918Z,9.10
2022-12-23T21:21:00.100Z,9.10
2022-12-23T21:23:26.935Z,9.00
2022-12-23T21:26:05.303Z,9.00
2022-12-23T21:28:32.177Z,9.00
2022-12-23T21:30:59.023Z,9.00
2022-12-23T21:33:25.867Z,9.10
2022-12-23T21:35:52.675Z,9.10
2022-12-23T21:38:19.531Z,9.00
2022-12-23T21:40:46.324Z,9.00
2022-12-23T21:43:13.317Z,9.00
2022-12-23T21:45:40.106Z,9.00
2022-12-23T21:48:06.920Z,9.00
2022-12-23T21:50:33.711Z,9.00
2022-12-23T21:53:00.545Z,9.00
2022-12-23T21:55:27.388Z,9.00
2022-12-23T21:57:54.189Z,8.90
2022-12-23T22:00:21.070Z,8.90
2022-12-23T22:02:47.893Z,8.90
2022-12-23T22:05:14.797Z,8.90
2022-12-23T22:07:41.615Z,8.80
2022-12-23T22:10:08.705Z,8.80
2022-12-23T22:12:35.474Z,8.80
2022-12-23T22:15:06.329Z,8.80
2022-12-23T22:17:36.356Z,8.80
2022-12-23T22:20:03.451Z,8.80
2022-12-23T22:22:30.304Z,8.80
2022-12-23T22:24:57.087Z,8.80
2022-12-23T22:27:23.960Z,8.80
2022-12-23T22:29:50.818Z,8.90
2022-12-23T22:32:17.656Z,8.90
2022-12-23T22:34:44.447Z,8.90
2022-12-23T22:37:11.285Z,9.00
2022-12-23T22:39:38.098Z,9.00
2022-12-23T22:42:04.999Z,9.00
2022-12-23T22:44:31.768Z,9.00
2022-12-23T22:46:58.599Z,9.00
2022-12-23T22:49:25.516Z,9.00
2022-12-23T22:51:52.832Z,9.00
2022-12-23T22:54:19.627Z,9.00
2022-12-23T22:56:46.482Z,8.90
2022-12-23T22:59:17.927Z,8.90
2022-12-23T23:01:44.823Z,9.00
2022-12-23T23:04:11.684Z,8.90
2022-12-23T23:06:38.651Z,8.90
2022-12-23T23:09:06.310Z,8.90
2022-12-23T23:11:33.165Z,8.90
2022-12-23T23:14:00.223Z,8.90
2022-12-23T23:16:27.076Z,8.90
2022-12-23T23:18:53.944Z,8.90
2022-12-23T23:21:20.792Z,8.90
2022-12-23T23:23:47.650Z,8.90
2022-12-23T23:26:14.600Z,8.90
2022-12-23T23:28:41.371Z,8.90
2022-12-23T23:33:55.074Z,8.90
2022-12-23T23:36:21.906Z,8.90
2022-12-23T23:38:48.762Z,8.80
2022-12-23T23:41:20.691Z,8.80
2022-12-23T23:43:49.964Z,8.80
2022-12-23T23:46:16.862Z,8.80
2022-12-23T23:48:43.837Z,8.80
2022-12-23T23:51:10.697Z,8.80
2022-12-23T23:53:37.520Z,8.80
2022-12-23T23:56:04.985Z,8.90
2022-12-23T23:58:32.012Z,8.80
